createdAt,value
2017-08-06T00:01:53.710Z,11.30
2017-08-06T00:04:21.993Z,11.10
2017-08-06T00:06:50.298Z,10.17
2017-08-06T00:09:18.902Z,10.73
2017-08-06T00:11:47.980Z,9.53
2017-08-06T00:14:16.278Z,12.10
2017-08-06T00:16:45.554Z,10.53
2017-08-06T00:19:13.849Z,11.13
2017-08-06T00:21:42.173Z,11.37
2017-08-06T00:24:10.740Z,11.40
2017-08-06T00:26:39.059Z,9.97
2017-08-06T00:29:07.990Z,11.10
2017-08-06T00:31:36.568Z,10.10
2017-08-06T00:34:05.171Z,10.47
2017-08-06T00:36:33.512Z,9.70
2017-08-06T00:39:02.163Z,9.90
2017-08-06T00:41:31.203Z,10.43
2017-08-06T00:43:59.470Z,8.87
2017-08-06T00:46:28.103Z,10.93
2017-08-06T00:48:56.401Z,9.83
2017-08-06T00:51:24.710Z,9.47
2017-08-06T00:53:54.075Z,10.57
2017-08-06T00:56:22.369Z,9.97
2017-08-06T00:58:50.663Z,10.80
2017-08-06T01:01:20.042Z,10.07
2017-08-06T01:03:48.315Z,9.47
2017-08-06T01:06:16.618Z,8.93
2017-08-06T01:08:45.383Z,10.50
2017-08-06T01:11:13.772Z,10.47
2017-08-06T01:13:43.249Z,9.37
2017-08-06T01:16:11.798Z,10.50
2017-08-06T01:18:40.885Z,9.23
2017-08-06T01:21:09.560Z,12.00
2017-08-06T01:23:39.097Z,11.87
2017-08-06T01:26:07.428Z,10.50
2017-08-06T01:28:35.749Z,11.23
2017-08-06T01:31:04.437Z,11.50
2017-08-06T01:33:32.716Z,11.33
2017-08-06T01:36:01.013Z,11.90
2017-08-06T01:38:29.725Z,11.07
2017-08-06T01:40:58.647Z,12.10
2017-08-06T01:43:26.979Z,11.70
2017-08-06T01:45:55.725Z,12.40
2017-08-06T01:48:24.048Z,11.50
2017-08-06T01:50:52.346Z,11.50
2017-08-06T01:53:21.684Z,12.23
2017-08-06T01:55:49.993Z,13.20
2017-08-06T01:58:18.320Z,14.97
2017-08-06T02:00:46.909Z,13.63
2017-08-06T02:03:16.009Z,14.63
2017-08-06T02:05:44.298Z,14.37
2017-08-06T02:08:14.698Z,13.70
2017-08-06T02:10:43.097Z,15.03
2017-08-06T02:13:11.401Z,15.80
2017-08-06T02:15:40.829Z,14.63
2017-08-06T02:18:09.176Z,16.80
2017-08-06T02:20:38.340Z,17.00
2017-08-06T02:23:06.933Z,15.30
2017-08-06T02:25:35.242Z,16.07
2017-08-06T02:28:03.814Z,17.13
2017-08-06T02:30:32.403Z,15.47
2017-08-06T02:33:00.703Z,15.33
2017-08-06T02:35:31.714Z,16.07
2017-08-06T02:38:00.653Z,15.77
2017-08-06T02:40:28.961Z,17.47
2017-08-06T02:42:58.124Z,16.30
2017-08-06T02:45:26.701Z,16.00
2017-08-06T02:47:55.001Z,15.77
2017-08-06T02:50:23.325Z,16.60
2017-08-06T02:52:51.944Z,15.60
2017-08-06T02:55:21.036Z,15.20
2017-08-06T02:57:50.168Z,15.63
2017-08-06T03:00:18.931Z,16.50
2017-08-06T03:02:47.318Z,16.20
2017-08-06T03:05:15.955Z,15.30
2017-08-06T03:07:44.896Z,17.17
2017-08-06T03:10:13.188Z,16.00
2017-08-06T03:12:41.504Z,15.90
2017-08-06T03:15:10.864Z,17.63
2017-08-06T03:17:39.236Z,17.13
2017-08-06T03:20:07.537Z,14.50
2017-08-06T03:22:36.381Z,15.27
2017-08-06T03:25:06.357Z,13.93
2017-08-06T03:27:36.591Z,15.13
2017-08-06T03:30:04.888Z,16.40
2017-08-06T03:32:34.246Z,15.37
2017-08-06T03:35:02.909Z,16.93
2017-08-06T03:37:32.516Z,16.27
2017-08-06T03:40:01.660Z,16.37
2017-08-06T03:42:30.634Z,16.07
2017-08-06T03:44:58.937Z,16.00
2017-08-06T03:47:27.241Z,16.70
2017-08-06T03:49:55.833Z,13.77
2017-08-06T03:52:24.679Z,16.67
2017-08-06T03:54:53.829Z,16.63
2017-08-06T03:57:22.523Z,16.70
2017-08-06T03:59:51.996Z,14.77
2017-08-06T04:02:20.660Z,16.23
2017-08-06T04:04:49.283Z,16.37
2017-08-06T04:07:18.192Z,16.10
2017-08-06T04:09:46.542Z,16.70
2017-08-06T04:12:15.200Z,15.80
2017-08-06T04:14:43.736Z,13.60
2017-08-06T04:17:14.496Z,15.67
2017-08-06T04:19:43.092Z,14.53
2017-08-06T04:22:11.430Z,13.60
2017-08-06T04:24:39.719Z,14.77
2017-08-06T04:27:09.057Z,14.53
2017-08-06T04:29:37.383Z,15.07
2017-08-06T04:32:06.453Z,14.93
2017-08-06T04:34:35.118Z,16.20
2017-08-06T04:37:03.411Z,15.17
2017-08-06T04:39:31.728Z,14.90
2017-08-06T04:42:00.413Z,15.40
2017-08-06T04:44:29.534Z,14.97
2017-08-06T04:46:58.189Z,14.47
2017-08-06T04:49:27.270Z,13.60
2017-08-06T04:51:55.566Z,14.03
2017-08-06T04:54:23.940Z,12.67
2017-08-06T04:56:52.599Z,13.07
2017-08-06T04:59:20.962Z,12.37
2017-08-06T05:01:49.307Z,12.33
2017-08-06T05:04:18.588Z,12.80
2017-08-06T05:06:46.865Z,10.30
2017-08-06T05:09:15.183Z,10.90
2017-08-06T05:11:43.799Z,9.33
2017-08-06T05:14:12.093Z,8.80
2017-08-06T05:16:40.434Z,9.83
2017-08-06T05:19:08.953Z,8.03
2017-08-06T05:21:37.893Z,7.63
2017-08-06T05:24:06.220Z,7.17
2017-08-06T05:26:35.673Z,7.93
2017-08-06T05:29:03.976Z,8.10
2017-08-06T05:31:33.102Z,6.33
2017-08-06T05:34:02.430Z,7.57
2017-08-06T05:36:31.532Z,5.87
2017-08-06T05:38:59.801Z,7.50
2017-08-06T05:41:29.049Z,7.97
2017-08-06T05:43:58.287Z,10.67
2017-08-06T05:46:27.873Z,10.90
2017-08-06T05:48:56.856Z,10.67
2017-08-06T05:51:26.004Z,9.33
2017-08-06T05:53:55.141Z,9.07
2017-08-06T05:56:23.777Z,8.37
2017-08-06T05:58:53.452Z,7.47
2017-08-06T06:01:21.793Z,7.60
2017-08-06T06:03:51.169Z,8.10
2017-08-06T06:06:19.701Z,7.27
2017-08-06T06:08:47.977Z,7.47
2017-08-06T06:11:16.654Z,7.50
2017-08-06T06:13:45.711Z,5.13
2017-08-06T06:16:14.039Z,6.40
2017-08-06T06:18:42.592Z,7.03
2017-08-06T06:21:12.400Z,6.87
2017-08-06T06:23:40.727Z,7.53
2017-08-06T06:26:09.387Z,5.40
2017-08-06T06:28:37.714Z,5.47
2017-08-06T06:31:06.423Z,5.00
2017-08-06T06:33:35.057Z,4.83
2017-08-06T06:36:03.409Z,5.50
2017-08-06T06:38:32.113Z,5.63
2017-08-06T06:41:00.769Z,4.43
2017-08-06T06:43:29.152Z,4.60
2017-08-06T06:45:58.333Z,4.37
2017-08-06T06:48:27.812Z,4.73
2017-08-06T06:50:56.948Z,4.03
2017-08-06T06:53:26.890Z,3.83
2017-08-06T06:55:55.480Z,4.00
2017-08-06T06:58:24.116Z,3.80
2017-08-06T07:00:53.198Z,3.90
2017-08-06T07:03:21.848Z,2.80
2017-08-06T07:05:50.186Z,3.73
2017-08-06T07:08:18.563Z,3.47
2017-08-06T07:10:47.123Z,4.47
2017-08-06T07:13:15.434Z,2.90
2017-08-06T07:15:43.727Z,3.47
2017-08-06T07:18:12.291Z,3.47
2017-08-06T07:20:40.567Z,2.60
2017-08-06T07:23:09.652Z,3.50
2017-08-06T07:25:38.262Z,2.87
2017-08-06T07:28:08.293Z,2.67
2017-08-06T07:30:37.298Z,2.97
2017-08-06T07:33:06.032Z,2.67
2017-08-06T07:35:34.318Z,2.40
2017-08-06T07:38:02.733Z,2.43
2017-08-06T07:40:31.335Z,3.00
2017-08-06T07:43:01.073Z,2.60
2017-08-06T07:45:30.718Z,2.37
2017-08-06T07:47:59.942Z,2.13
2017-08-06T07:50:28.248Z,2.63
2017-08-06T07:52:56.523Z,2.17
2017-08-06T07:55:25.756Z,2.03
2017-08-06T07:57:54.815Z,2.50
2017-08-06T08:00:23.132Z,2.50
2017-08-06T08:02:53.320Z,2.50
2017-08-06T08:05:21.596Z,2.87
2017-08-06T08:07:49.909Z,2.93
2017-08-06T08:10:18.602Z,2.00
2017-08-06T08:12:46.881Z,2.90
2017-08-06T08:15:15.146Z,3.13
2017-08-06T08:17:43.824Z,2.77
2017-08-06T08:20:12.338Z,2.00
2017-08-06T08:22:41.015Z,1.80
2017-08-06T08:25:09.577Z,2.23
2017-08-06T08:27:38.617Z,2.13
2017-08-06T08:30:06.904Z,2.43
2017-08-06T08:32:36.388Z,2.80
2017-08-06T08:35:05.595Z,1.73
2017-08-06T08:37:33.903Z,2.50
2017-08-06T08:40:03.189Z,2.30
2017-08-06T08:42:31.485Z,1.93
2017-08-06T08:45:00.054Z,2.07
2017-08-06T08:47:28.629Z,2.30
2017-08-06T08:49:56.905Z,2.13
2017-08-06T08:52:25.198Z,2.10
2017-08-06T08:54:53.784Z,1.60
2017-08-06T08:57:22.847Z,1.47
2017-08-06T08:59:51.128Z,2.37
2017-08-06T09:02:20.478Z,1.50
2017-08-06T09:04:48.777Z,1.80
2017-08-06T09:07:17.475Z,1.53
2017-08-06T09:09:47.267Z,1.70
2017-08-06T09:12:15.557Z,1.83
2017-08-06T09:14:43.832Z,1.57
2017-08-06T09:17:12.442Z,1.43
2017-08-06T09:19:41.508Z,1.50
2017-08-06T09:22:11.283Z,1.77
2017-08-06T09:24:40.934Z,2.80
2017-08-06T09:27:09.255Z,2.10
2017-08-06T09:29:39.302Z,2.03
2017-08-06T09:32:09.285Z,1.63
2017-08-06T09:34:37.985Z,2.03
2017-08-06T09:37:07.025Z,1.50
2017-08-06T09:39:35.601Z,1.40
2017-08-06T09:42:03.956Z,1.43
2017-08-06T09:44:33.012Z,1.80
2017-08-06T09:47:01.639Z,1.73
2017-08-06T09:49:30.700Z,1.80
2017-08-06T09:51:58.991Z,1.57
2017-08-06T09:54:28.678Z,1.60
2017-08-06T09:56:57.000Z,1.67
2017-08-06T09:59:25.340Z,1.70
2017-08-06T10:01:53.973Z,1.40
2017-08-06T10:04:22.261Z,1.63
2017-08-06T10:06:50.939Z,2.00
2017-08-06T10:09:19.505Z,1.60
2017-08-06T10:11:47.795Z,2.07
2017-08-06T10:14:17.285Z,1.50
2017-08-06T10:16:45.904Z,1.83
2017-08-06T10:19:15.563Z,1.57
2017-08-06T10:21:46.899Z,1.60
2017-08-06T10:24:16.416Z,1.30
2017-08-06T10:26:45.056Z,1.40
2017-08-06T10:29:13.620Z,1.53
2017-08-06T10:31:43.057Z,1.00
2017-08-06T10:34:11.363Z,1.80
2017-08-06T10:36:41.569Z,1.20
2017-08-06T10:39:11.003Z,1.40
2017-08-06T10:41:40.129Z,1.27
2017-08-06T10:44:09.459Z,1.30
2017-08-06T10:46:37.778Z,1.40
2017-08-06T10:49:07.258Z,1.40
2017-08-06T10:51:36.768Z,1.00
2017-08-06T10:54:05.078Z,1.40
2017-08-06T10:56:33.672Z,1.33
2017-08-06T10:59:03.060Z,1.70
2017-08-06T11:01:31.341Z,1.30
2017-08-06T11:03:59.650Z,1.20
2017-08-06T11:06:29.350Z,1.37
2017-08-06T11:08:58.211Z,1.60
2017-08-06T11:11:26.521Z,1.20
2017-08-06T11:13:55.522Z,1.40
2017-08-06T11:16:23.804Z,1.73
2017-08-06T11:18:53.310Z,1.43
2017-08-06T11:21:21.987Z,1.50
2017-08-06T11:23:51.181Z,1.40
2017-08-06T11:26:19.475Z,1.27
2017-08-06T11:28:49.393Z,1.30
2017-08-06T11:31:17.718Z,1.33
2017-08-06T11:33:46.527Z,1.40
2017-08-06T11:36:15.159Z,1.17
2017-08-06T11:38:43.431Z,1.30
2017-08-06T11:41:12.908Z,1.40
2017-08-06T11:43:42.171Z,1.20
2017-08-06T11:46:10.454Z,1.30
2017-08-06T11:48:38.757Z,1.50
2017-08-06T11:51:08.700Z,1.60
2017-08-06T11:53:38.216Z,1.33
2017-08-06T11:56:07.964Z,1.20
2017-08-06T11:58:36.623Z,1.60
2017-08-06T12:01:04.891Z,1.10
2017-08-06T12:03:33.205Z,1.30
2017-08-06T12:06:01.777Z,1.10
2017-08-06T12:08:30.075Z,1.20
2017-08-06T12:10:58.360Z,1.17
2017-08-06T12:13:26.927Z,1.00
2017-08-06T12:15:55.599Z,1.50
2017-08-06T12:18:23.878Z,1.10
2017-08-06T12:20:52.560Z,1.00
2017-08-06T12:23:21.526Z,1.33
2017-08-06T12:25:50.698Z,1.27
2017-08-06T12:28:19.306Z,0.97
2017-08-06T12:30:47.676Z,1.23
2017-08-06T12:33:15.994Z,1.10
2017-08-06T12:35:44.544Z,1.00
2017-08-06T12:38:12.975Z,1.17
2017-08-06T12:40:42.052Z,1.20
2017-08-06T12:43:10.659Z,1.40
2017-08-06T12:45:40.234Z,1.00
2017-08-06T12:48:10.055Z,1.43
2017-08-06T12:50:38.624Z,1.30
2017-08-06T12:53:06.927Z,0.97
2017-08-06T12:55:35.218Z,0.90
2017-08-06T12:58:04.638Z,1.10
2017-08-06T13:00:33.037Z,1.17
2017-08-06T13:03:02.241Z,1.07
2017-08-06T13:05:30.898Z,1.07
2017-08-06T13:07:59.189Z,1.43
2017-08-06T13:10:28.808Z,1.37
2017-08-06T13:12:57.264Z,1.07
2017-08-06T13:15:25.560Z,0.90
2017-08-06T13:17:54.247Z,0.97
2017-08-06T13:20:23.878Z,1.20
2017-08-06T13:22:52.947Z,1.33
2017-08-06T13:25:21.251Z,1.00
2017-08-06T13:27:51.562Z,1.63
2017-08-06T13:30:22.418Z,1.00
2017-08-06T13:32:52.135Z,1.23
2017-08-06T13:35:21.552Z,1.00
2017-08-06T13:37:50.936Z,1.20
2017-08-06T13:40:19.539Z,1.40
2017-08-06T13:42:48.084Z,0.90
2017-08-06T13:45:16.407Z,1.10
2017-08-06T13:47:46.117Z,1.23
2017-08-06T13:50:14.895Z,1.20
2017-08-06T13:52:43.209Z,1.20
2017-08-06T13:55:11.837Z,1.50
2017-08-06T13:57:40.174Z,1.60
2017-08-06T14:00:09.207Z,1.33
2017-08-06T14:02:37.796Z,1.30
2017-08-06T14:05:06.094Z,1.60
2017-08-06T14:07:34.378Z,1.00
2017-08-06T14:10:02.973Z,1.27
2017-08-06T14:12:31.673Z,1.43
2017-08-06T14:15:00.468Z,1.63
2017-08-06T14:17:29.052Z,1.27
2017-08-06T14:19:57.643Z,1.20
2017-08-06T14:22:26.045Z,1.40
2017-08-06T14:24:55.053Z,1.50
2017-08-06T14:27:23.355Z,1.67
2017-08-06T14:29:51.956Z,1.17
2017-08-06T14:32:21.919Z,1.30
2017-08-06T14:34:51.225Z,1.40
2017-08-06T14:37:20.665Z,1.27
2017-08-06T14:39:50.129Z,0.90
2017-08-06T14:42:18.441Z,1.30
2017-08-06T14:44:47.615Z,1.53
2017-08-06T14:47:16.305Z,1.40
2017-08-06T14:49:44.633Z,2.00
2017-08-06T14:52:15.020Z,1.10
2017-08-06T14:54:44.653Z,1.30
2017-08-06T14:57:14.335Z,1.40
2017-08-06T14:59:44.225Z,1.30
2017-08-06T15:02:13.507Z,1.27
2017-08-06T15:04:43.159Z,1.03
2017-08-06T15:07:11.658Z,1.40
2017-08-06T15:09:39.951Z,1.20
2017-08-06T15:12:09.404Z,1.17
2017-08-06T15:14:39.200Z,1.70
2017-08-06T15:17:07.519Z,1.10
2017-08-06T15:19:36.202Z,1.20
2017-08-06T15:22:05.441Z,1.70
2017-08-06T15:24:34.845Z,2.20
2017-08-06T15:27:03.149Z,1.20
2017-08-06T15:29:31.714Z,1.10
2017-08-06T15:31:59.991Z,6.83
2017-08-06T15:34:28.460Z,0.90
2017-08-06T15:36:57.930Z,1.80
2017-08-06T15:39:26.251Z,5.00
2017-08-06T15:41:55.064Z,1.40
2017-08-06T15:44:25.617Z,2.10
2017-08-06T15:46:54.039Z,1.83
2017-08-06T15:49:23.174Z,1.20
2017-08-06T15:51:51.734Z,1.00
2017-08-06T15:54:21.416Z,1.00
2017-08-06T15:56:50.496Z,1.50
2017-08-06T15:59:19.090Z,1.03
2017-08-06T16:01:47.552Z,1.30
2017-08-06T16:04:15.894Z,1.47
2017-08-06T16:06:46.017Z,1.43
2017-08-06T16:09:15.086Z,1.30
2017-08-06T16:11:44.392Z,1.97
2017-08-06T16:14:12.971Z,2.47
2017-08-06T16:16:41.279Z,1.47
2017-08-06T16:19:09.874Z,1.23
2017-08-06T16:21:39.239Z,1.47
2017-08-06T16:24:07.541Z,1.40
2017-08-06T16:26:35.973Z,1.17
2017-08-06T16:29:04.614Z,1.70
2017-08-06T16:31:32.910Z,1.30
2017-08-06T16:34:01.229Z,1.50
2017-08-06T16:36:31.468Z,1.37
2017-08-06T16:38:59.809Z,1.70
2017-08-06T16:41:28.893Z,1.10
2017-08-06T16:43:57.459Z,1.30
2017-08-06T16:46:25.852Z,1.70
2017-08-06T16:48:54.122Z,1.73
2017-08-06T16:51:22.699Z,1.90
2017-08-06T16:53:51.131Z,1.20
2017-08-06T16:56:19.440Z,1.50
2017-08-06T16:58:48.059Z,1.63
2017-08-06T17:01:16.463Z,1.17
2017-08-06T17:03:44.735Z,1.43
2017-08-06T17:06:13.867Z,1.43
2017-08-06T17:08:42.954Z,1.40
2017-08-06T17:11:11.244Z,1.23
2017-08-06T17:13:40.645Z,1.43
2017-08-06T17:16:08.929Z,1.77
2017-08-06T17:18:37.238Z,1.33
2017-08-06T17:21:06.626Z,1.43
2017-08-06T17:23:35.697Z,1.40
2017-08-06T17:26:04.949Z,1.47
2017-08-06T17:28:34.426Z,1.80
2017-08-06T17:31:04.122Z,1.60
2017-08-06T17:33:32.389Z,1.43
2017-08-06T17:36:01.022Z,1.37
2017-08-06T17:38:30.096Z,1.40
2017-08-06T17:40:58.410Z,1.30
2017-08-06T17:43:27.007Z,1.20
2017-08-06T17:45:55.678Z,1.53
2017-08-06T17:48:24.742Z,1.40
2017-08-06T17:50:53.302Z,1.80
2017-08-06T17:53:21.584Z,1.23
2017-08-06T17:55:49.872Z,1.30
2017-08-06T17:58:18.497Z,1.30
2017-08-06T18:00:46.814Z,1.60
2017-08-06T18:03:15.089Z,1.50
2017-08-06T18:05:44.597Z,1.33
2017-08-06T18:08:13.638Z,1.30
2017-08-06T18:10:41.942Z,1.50
2017-08-06T18:13:10.637Z,1.90
2017-08-06T18:15:39.444Z,2.30
2017-08-06T18:18:07.766Z,1.77
2017-08-06T18:20:36.412Z,1.57
2017-08-06T18:23:04.753Z,2.03
2017-08-06T18:25:33.629Z,1.90
2017-08-06T18:28:02.277Z,1.67
2017-08-06T18:30:30.585Z,2.57
2017-08-06T18:32:59.710Z,1.70
2017-08-06T18:35:28.344Z,1.90
2017-08-06T18:37:58.231Z,2.33
2017-08-06T18:40:27.327Z,1.70
2017-08-06T18:42:55.895Z,1.63
2017-08-06T18:45:24.185Z,1.73
2017-08-06T18:47:53.052Z,1.73
2017-08-06T18:50:23.045Z,1.63
2017-08-06T18:52:52.185Z,2.03
2017-08-06T18:55:21.248Z,1.60
2017-08-06T18:57:49.850Z,3.20
2017-08-06T19:00:18.839Z,1.80
2017-08-06T19:02:47.286Z,2.10
2017-08-06T19:05:16.850Z,2.03
2017-08-06T19:07:45.944Z,1.90
2017-08-06T19:10:15.213Z,1.80
2017-08-06T19:12:43.797Z,1.83
2017-08-06T19:15:12.099Z,1.80
2017-08-06T19:17:40.488Z,2.10
2017-08-06T19:20:09.075Z,1.90
2017-08-06T19:22:37.376Z,1.80
2017-08-06T19:25:05.660Z,2.10
2017-08-06T19:27:35.026Z,2.40
2017-08-06T19:30:03.422Z,2.60
2017-08-06T19:32:31.779Z,2.60
2017-08-06T19:35:00.380Z,2.97
2017-08-06T19:37:28.664Z,2.30
2017-08-06T19:39:56.965Z,2.60
2017-08-06T19:42:25.519Z,2.70
2017-08-06T19:44:54.657Z,2.73
2017-08-06T19:47:22.935Z,2.57
2017-08-06T19:49:51.511Z,2.73
2017-08-06T19:52:19.820Z,4.47
2017-08-06T19:54:48.100Z,3.50
2017-08-06T19:57:17.477Z,3.80
2017-08-06T19:59:45.793Z,4.13
2017-08-06T20:02:14.851Z,4.77
2017-08-06T20:04:43.461Z,4.87
2017-08-06T20:07:11.751Z,3.83
2017-08-06T20:09:40.805Z,4.50
2017-08-06T20:12:09.430Z,2.93
2017-08-06T20:14:38.500Z,3.70
2017-08-06T20:17:06.809Z,4.00
2017-08-06T20:19:36.016Z,4.10
2017-08-06T20:22:04.304Z,4.40
2017-08-06T20:24:32.626Z,4.57
2017-08-06T20:27:01.291Z,4.73
2017-08-06T20:29:30.360Z,4.50
2017-08-06T20:31:58.666Z,5.10
2017-08-06T20:34:27.294Z,4.43
2017-08-06T20:36:55.576Z,4.90
2017-08-06T20:39:23.869Z,5.00
2017-08-06T20:41:52.486Z,4.50
2017-08-06T20:44:20.769Z,4.10
2017-08-06T20:46:49.082Z,4.17
2017-08-06T20:49:19.086Z,3.73
2017-08-06T20:51:47.956Z,4.07
2017-08-06T20:54:16.281Z,4.77
2017-08-06T20:56:45.660Z,3.97
2017-08-06T20:59:13.993Z,4.50
2017-08-06T21:01:43.048Z,4.13
2017-08-06T21:04:12.689Z,4.00
2017-08-06T21:06:41.763Z,3.97
2017-08-06T21:09:10.047Z,3.40
2017-08-06T21:11:38.800Z,4.30
2017-08-06T21:14:07.080Z,3.90
2017-08-06T21:16:35.716Z,4.03
2017-08-06T21:19:04.614Z,3.53
2017-08-06T21:21:32.956Z,3.17
2017-08-06T21:24:01.742Z,3.40
2017-08-06T21:26:31.088Z,3.13
2017-08-06T21:29:00.157Z,3.20
2017-08-06T21:31:28.446Z,3.57
2017-08-06T21:33:57.462Z,3.70
2017-08-06T21:36:28.352Z,3.10
2017-08-06T21:39:00.103Z,3.33
2017-08-06T21:41:28.460Z,4.70
2017-08-06T21:43:56.767Z,3.67
2017-08-06T21:46:25.422Z,3.53
2017-08-06T21:48:54.759Z,3.43
2017-08-06T21:51:23.426Z,3.00
2017-08-06T21:53:51.977Z,4.40
2017-08-06T21:56:20.396Z,4.70
2017-08-06T21:58:49.456Z,3.93
2017-08-06T22:01:18.064Z,3.57
2017-08-06T22:03:46.363Z,3.43
2017-08-06T22:06:14.685Z,4.20
2017-08-06T22:08:44.304Z,3.63
2017-08-06T22:11:12.785Z,3.53
2017-08-06T22:13:41.096Z,3.47
2017-08-06T22:16:09.704Z,4.07
2017-08-06T22:18:38.976Z,3.90
2017-08-06T22:21:07.264Z,4.37
2017-08-06T22:23:35.877Z,3.80
2017-08-06T22:26:04.180Z,4.03
2017-08-06T22:28:33.246Z,4.40
2017-08-06T22:31:01.882Z,3.70
2017-08-06T22:33:30.165Z,4.63
2017-08-06T22:35:59.095Z,4.57
2017-08-06T22:38:28.009Z,4.83
2017-08-06T22:40:57.788Z,4.73
2017-08-06T22:43:26.117Z,4.90
2017-08-06T22:45:56.244Z,4.97
2017-08-06T22:48:25.133Z,5.10
2017-08-06T22:50:53.414Z,6.40
2017-08-06T22:53:22.664Z,5.63
2017-08-06T22:55:51.501Z,5.40
2017-08-06T22:58:19.790Z,5.30
2017-08-06T23:00:48.784Z,5.20
2017-08-06T23:03:17.055Z,6.07
2017-08-06T23:05:45.769Z,5.47
2017-08-06T23:08:14.448Z,5.40
2017-08-06T23:10:42.852Z,5.97
2017-08-06T23:13:11.100Z,5.50
2017-08-06T23:15:39.788Z,5.40
2017-08-06T23:18:08.043Z,5.20
2017-08-06T23:20:36.506Z,5.37
2017-08-06T23:23:05.188Z,6.07
2017-08-06T23:25:34.292Z,5.93
2017-08-06T23:28:02.578Z,5.43
2017-08-06T23:30:31.241Z,6.17
2017-08-06T23:32:59.759Z,5.87
2017-08-06T23:35:28.827Z,7.07
2017-08-06T23:37:57.517Z,6.20
2017-08-06T23:40:26.791Z,5.70
2017-08-06T23:42:55.106Z,6.37
2017-08-06T23:45:23.708Z,5.87
2017-08-06T23:47:52.766Z,6.50
2017-08-06T23:50:21.053Z,6.20
2017-08-06T23:52:49.911Z,6.67
2017-08-06T23:55:19.637Z,6.20
2017-08-06T23:57:47.918Z,5.63
